Basel, Switzerland
Current Conditions -  °F | °C
As of 4:30 AM on Sunday 25 Jan 2015 (Local Time) from LFSB Reporting Station
Overcast Overcast  
Wind Chill: 34°   Ceiling: 2000
Heat Index: 34°   Visibility: 6mi
Dew Point: 30°   Wind: 3mph
Humidity: 87%   Direction: NA
Pressure: 30.33"   Gusts: NA
Location:  47.57°N, 7.58°E
Report Text: LFSB 250330Z VRB03KT 9999 BKN020 OVC028 01/M01 Q1027 NOSIG
Loading
Personal Weather Stations






























Interactive Weather Map New forecast layout! Learn more

10-Day Weather Forecast

Advertisements
Track Severe Weather on mobile